Time;durP1;ratioP1;P1;durP2;ratioP2;P2;SDS_P1;SDS_P2;PMS_P1;PMS_P2;Temp;Humidity;BMP_temperature;BMP_pressure;BME280_temperature;BME280_humidity;BME280_pressure;Samples;Min_cycle;Max_cycle;Signal;HPM_P1;HPM_P2
2022/11/13 00:02:17;;;;;;;26.05;15.60;;;8.20;99.90;;;;;;5107333;28;20027;-73
2022/11/13 00:04:44;;;;;;;27.35;15.65;;;8.20;99.90;;;;;;5088805;28;20032;-77
2022/11/13 00:07:10;;;;;;;25.33;15.70;;;8.20;99.90;;;;;;5107210;28;20028;-72
2022/11/13 00:09:36;;;;;;;28.13;16.33;;;8.20;99.90;;;;;;5093113;28;20415;-72
2022/11/13 00:12:02;;;;;;;27.42;15.30;;;8.20;99.90;;;;;;5106307;28;20067;-72
2022/11/13 00:14:28;;;;;;;25.75;13.63;;;8.20;99.90;;;;;;5106407;28;20108;-72
2022/11/13 00:16:53;;;;;;;25.95;15.13;;;8.20;99.90;;;;;;5105645;28;20402;-72
2022/11/13 00:19:19;;;;;;;23.63;14.60;;;8.20;99.90;;;;;;5107946;28;20035;-77
2022/11/13 00:21:45;;;;;;;21.55;13.70;;;8.20;99.90;;;;;;5092039;28;20027;-75
2022/11/13 00:24:11;;;;;;;22.83;14.75;;;8.20;99.90;;;;;;5104951;28;20037;-75
2022/11/13 00:26:38;;;;;;;22.05;14.43;;;8.20;99.90;;;;;;5104974;28;20570;-72
2022/11/13 00:29:04;;;;;;;25.20;14.52;;;8.20;99.90;;;;;;5105142;27;20027;-72
2022/11/13 00:31:30;;;;;;;22.77;14.40;;;8.20;99.90;;;;;;5073351;28;20032;-72
2022/11/13 00:33:58;;;;;;;20.80;13.02;;;8.10;99.90;;;;;;5091948;28;20051;-72
2022/11/13 00:36:26;;;;;;;21.85;13.52;;;8.10;99.90;;;;;;5089910;28;20043;-72
2022/11/13 00:38:52;;;;;;;21.77;14.80;;;8.10;99.90;;;;;;5107668;28;20039;-74
2022/11/13 00:41:18;;;;;;;21.98;13.48;;;8.10;99.90;;;;;;5109486;28;20035;-72
2022/11/13 00:43:44;;;;;;;23.60;13.45;;;8.10;99.90;;;;;;5108398;28;20081;-71
2022/11/13 00:46:10;;;;;;;21.60;13.32;;;8.10;99.90;;;;;;5104618;28;20112;-75
2022/11/13 00:48:36;;;;;;;20.33;13.13;;;8.20;99.90;;;;;;5108599;28;20015;-74
2022/11/13 00:51:02;;;;;;;21.98;12.25;;;8.20;99.90;;;;;;5070913;28;20539;-73
2022/11/13 00:53:29;;;;;;;21.77;13.10;;;8.10;99.90;;;;;;5072172;28;20453;-76
2022/11/13 00:55:55;;;;;;;21.48;11.88;;;8.20;99.90;;;;;;5103219;28;20023;-71
2022/11/13 00:58:21;;;;;;;18.75;11.70;;;8.10;99.90;;;;;;5105708;28;20475;-72
2022/11/13 01:00:47;;;;;;;17.75;11.88;;;8.10;99.90;;;;;;5102381;27;20023;-76
2022/11/13 01:03:15;;;;;;;21.45;12.80;;;8.10;99.90;;;;;;5069988;28;20347;-73
2022/11/13 01:05:44;;;;;;;19.15;11.95;;;8.10;99.90;;;;;;5087545;28;20102;-72
2022/11/13 01:08:11;;;;;;;16.55;11.35;;;8.10;99.90;;;;;;5091874;28;20037;-72
2022/11/13 01:10:40;;;;;;;18.20;11.70;;;8.10;99.90;;;;;;5104070;28;20078;-73
2022/11/13 01:13:06;;;;;;;21.38;12.25;;;8.10;99.90;;;;;;5106758;28;20781;-73
2022/11/13 01:15:32;;;;;;;24.35;11.40;;;8.10;99.90;;;;;;5101612;28;20035;-74
2022/11/13 01:17:58;;;;;;;23.25;12.23;;;8.10;99.90;;;;;;5090830;28;20455;-75
2022/11/13 01:20:26;;;;;;;20.15;12.50;;;8.10;99.90;;;;;;5088345;28;20039;-71
2022/11/13 01:22:52;;;;;;;19.48;11.40;;;8.10;99.90;;;;;;5107143;28;20035;-71
2022/11/13 01:25:18;;;;;;;19.02;12.02;;;8.00;99.90;;;;;;5104855;28;20023;-74
2022/11/13 01:27:44;;;;;;;20.98;13.23;;;8.00;99.90;;;;;;5089456;28;21054;-74
2022/11/13 01:30:11;;;;;;;17.05;11.68;;;8.00;99.90;;;;;;5100350;28;20028;-73
2022/11/13 01:32:41;;;;;;;21.05;12.60;;;7.90;99.90;;;;;;5099464;28;20031;-75
2022/11/13 01:35:08;;;;;;;21.40;13.10;;;7.90;99.90;;;;;;5106469;28;20099;-75
2022/11/13 01:37:34;;;;;;;18.15;12.15;;;7.90;99.90;;;;;;5105339;28;20153;-72
2022/11/13 01:39:59;;;;;;;18.77;11.90;;;7.90;99.90;;;;;;5103496;28;20043;-72
2022/11/13 01:42:25;;;;;;;19.17;11.93;;;7.90;99.90;;;;;;5102855;27;20031;-72
2022/11/13 01:44:55;;;;;;;19.50;12.55;;;7.90;99.90;;;;;;5104414;27;20027;-76
2022/11/13 01:47:23;;;;;;;20.75;12.65;;;7.90;99.90;;;;;;5101426;28;20028;-74
2022/11/13 01:49:53;;;;;;;20.52;12.77;;;7.80;99.90;;;;;;5108297;28;20019;-72
2022/11/13 01:52:26;;;;;;;24.35;12.63;;;7.90;99.90;;;;;;5090223;28;20031;-74
2022/11/13 01:55:00;;;;;;;19.23;12.13;;;7.80;99.90;;;;;;5105666;28;20704;-73
2022/11/13 01:57:28;;;;;;;19.75;12.02;;;7.80;99.90;;;;;;5086337;28;20027;-72
2022/11/13 01:59:59;;;;;;;19.85;12.63;;;7.80;99.90;;;;;;5083287;28;20030;-71
2022/11/13 02:02:25;;;;;;;18.85;11.95;;;7.80;99.90;;;;;;5111929;28;20417;-73
2022/11/13 02:04:51;;;;;;;19.95;12.70;;;7.80;99.90;;;;;;5091855;28;20024;-72
2022/11/13 02:07:20;;;;;;;18.08;12.52;;;7.80;99.90;;;;;;5081845;28;20032;-72
2022/11/13 02:09:49;;;;;;;18.80;11.93;;;7.80;99.90;;;;;;5103567;28;20015;-75
2022/11/13 02:12:20;;;;;;;19.92;11.68;;;7.80;99.90;;;;;;5099053;28;20031;-71
2022/11/13 02:14:52;;;;;;;22.92;12.60;;;7.80;99.90;;;;;;5079998;28;20122;-78
2022/11/13 02:17:25;;;;;;;21.05;12.52;;;7.80;99.90;;;;;;5085878;28;20031;-78
2022/11/13 02:19:56;;;;;;;22.38;13.52;;;7.80;99.90;;;;;;5090182;28;20031;-71
2022/11/13 02:22:41;;;;;;;19.00;12.95;;;7.80;99.90;;;;;;5104135;28;20093;-78
2022/11/13 02:25:10;;;;;;;19.75;13.18;;;7.70;99.90;;;;;;5105665;28;20043;-74
2022/11/13 02:27:49;;;;;;;21.73;13.10;;;7.70;99.90;;;;;;5102041;28;20015;-75
2022/11/13 02:30:24;;;;;;;20.77;13.80;;;7.70;99.90;;;;;;5102800;28;20020;-75
2022/11/13 02:32:52;;;;;;;19.05;12.45;;;7.70;99.90;;;;;;5098857;28;20111;-75
2022/11/13 02:35:40;;;;;;;24.40;12.20;;;7.70;99.90;;;;;;5099762;28;20027;-73
2022/11/13 02:38:06;;;;;;;20.95;14.07;;;7.70;99.90;;;;;;5103523;28;20075;-74
2022/11/13 02:40:33;;;;;;;20.40;12.93;;;7.70;99.90;;;;;;5105243;28;20066;-72
2022/11/13 02:42:59;;;;;;;21.63;14.18;;;7.70;99.90;;;;;;5083939;28;20036;-75
2022/11/13 02:45:24;;;;;;;21.20;13.18;;;7.70;99.90;;;;;;5086719;28;20034;-77
2022/11/13 02:47:50;;;;;;;23.23;13.23;;;7.70;99.90;;;;;;5069283;28;20068;-72
2022/11/13 02:50:17;;;;;;;22.83;14.10;;;7.70;99.90;;;;;;5068582;28;20035;-74
2022/11/13 02:52:42;;;;;;;20.08;13.05;;;7.70;99.90;;;;;;5104249;28;20031;-74
2022/11/13 02:55:08;;;;;;;21.63;14.15;;;7.70;99.90;;;;;;5082649;28;20075;-73
2022/11/13 02:57:34;;;;;;;23.15;13.40;;;7.70;99.90;;;;;;5085561;28;20032;-73
2022/11/13 03:00:01;;;;;;;23.65;13.68;;;7.70;99.90;;;;;;5106164;28;20394;-77
2022/11/13 03:02:27;;;;;;;19.13;12.30;;;7.70;99.90;;;;;;5102770;28;20080;-74
2022/11/13 03:04:52;;;;;;;21.27;13.50;;;7.70;99.90;;;;;;5106540;28;20028;-72
2022/11/13 03:07:19;;;;;;;22.10;13.82;;;7.60;99.90;;;;;;5099312;28;20034;-72
2022/11/13 03:09:45;;;;;;;19.27;12.90;;;7.60;99.90;;;;;;5084518;28;20055;-74
2022/11/13 03:12:11;;;;;;;23.45;12.55;;;7.60;99.90;;;;;;5100843;28;20051;-73
2022/11/13 03:14:36;;;;;;;23.00;13.98;;;7.60;99.90;;;;;;5087859;28;20408;-75
2022/11/13 03:17:02;;;;;;;21.30;13.80;;;7.50;99.90;;;;;;5085399;28;20115;-73
2022/11/13 03:19:28;;;;;;;20.05;12.73;;;7.50;99.90;;;;;;5104012;28;20102;-73
2022/11/13 03:21:54;;;;;;;21.70;14.43;;;7.50;99.90;;;;;;5102765;28;20514;-72
2022/11/13 03:24:20;;;;;;;21.88;13.52;;;7.50;99.90;;;;;;5085522;28;20040;-71
2022/11/13 03:26:46;;;;;;;21.73;14.02;;;7.50;99.90;;;;;;5108936;28;20691;-72
2022/11/13 03:29:12;;;;;;;22.58;14.18;;;7.50;99.90;;;;;;5095336;28;20028;-71
2022/11/13 03:31:39;;;;;;;24.58;14.23;;;7.40;99.90;;;;;;5087907;28;20028;-73
2022/11/13 03:34:04;;;;;;;23.27;13.45;;;7.50;99.90;;;;;;5103116;28;20103;-73
2022/11/13 03:36:30;;;;;;;26.50;13.43;;;7.50;99.90;;;;;;5106210;28;20110;-73
2022/11/13 03:38:56;;;;;;;21.98;13.40;;;7.50;99.90;;;;;;5106493;27;20055;-73
2022/11/13 03:41:22;;;;;;;22.30;13.55;;;7.50;99.90;;;;;;5086807;28;20084;-77
2022/11/13 03:43:48;;;;;;;25.60;13.60;;;7.50;99.90;;;;;;5108220;28;20035;-75
2022/11/13 03:46:14;;;;;;;24.08;14.65;;;7.40;99.90;;;;;;5091420;28;20036;-74
2022/11/13 03:48:40;;;;;;;23.10;14.68;;;7.40;99.90;;;;;;5087688;28;20099;-74
2022/11/13 03:51:07;;;;;;;25.55;14.38;;;7.40;99.90;;;;;;5084929;28;20896;-75
2022/11/13 03:53:32;;;;;;;22.00;13.73;;;7.40;99.90;;;;;;5108833;28;20487;-73
2022/11/13 03:55:58;;;;;;;22.45;15.15;;;7.40;99.90;;;;;;5090819;28;20062;-73
2022/11/13 03:58:24;;;;;;;24.08;14.25;;;7.40;99.90;;;;;;5090275;28;20030;-72
2022/11/13 04:00:51;;;;;;;23.00;13.32;;;7.40;99.90;;;;;;5087629;28;20040;-72
2022/11/13 04:03:17;;;;;;;22.17;13.52;;;7.40;99.90;;;;;;5104860;28;20027;-74
2022/11/13 04:05:47;;;;;;;20.27;13.93;;;7.40;99.90;;;;;;5091720;28;20080;-71
2022/11/13 04:08:13;;;;;;;23.30;14.48;;;7.40;99.90;;;;;;5108482;28;20023;-76
2022/11/13 04:10:39;;;;;;;20.60;14.02;;;7.40;99.90;;;;;;5109598;28;20035;-74
2022/11/13 04:13:05;;;;;;;25.02;15.43;;;7.40;99.90;;;;;;5108400;28;20035;-75
2022/11/13 04:15:31;;;;;;;24.30;15.18;;;7.40;99.90;;;;;;5087278;28;20035;-73
2022/11/13 04:17:57;;;;;;;24.35;15.05;;;7.40;99.90;;;;;;5105832;28;20028;-73
2022/11/13 04:20:26;;;;;;;24.60;14.80;;;7.40;99.90;;;;;;5088921;28;20072;-73
2022/11/13 04:22:53;;;;;;;24.15;14.32;;;7.40;99.90;;;;;;5102665;28;20023;-76
2022/11/13 04:25:19;;;;;;;25.02;14.57;;;7.40;99.90;;;;;;5104643;28;20031;-74
2022/11/13 04:27:44;;;;;;;27.13;15.10;;;7.40;99.90;;;;;;5086654;28;20028;-76
2022/11/13 04:30:11;;;;;;;22.80;14.05;;;7.40;99.90;;;;;;5103122;28;20564;-79
2022/11/13 04:32:36;;;;;;;22.00;13.60;;;7.40;99.90;;;;;;5098377;28;20058;-74
2022/11/13 04:35:03;;;;;;;21.77;13.90;;;7.40;99.90;;;;;;5103626;28;20547;-73
2022/11/13 04:37:29;;;;;;;24.55;14.57;;;7.40;99.90;;;;;;5100624;28;20842;-76
2022/11/13 04:39:54;;;;;;;23.20;14.57;;;7.40;99.90;;;;;;5084933;28;20054;-77
2022/11/13 04:45:08;;;;;;;26.85;14.48;;;7.40;99.90;;;;;;5099310;28;20023;-75
2022/11/13 04:47:33;;;;;;;23.60;14.23;;;7.40;99.90;;;;;;5100024;28;20033;-77
2022/11/13 04:50:02;;;;;;;26.17;14.82;;;7.40;99.90;;;;;;5102120;28;20466;-73
2022/11/13 04:52:28;;;;;;;21.33;14.23;;;7.40;99.90;;;;;;5104521;28;20039;-74
2022/11/13 04:54:56;;;;;;;23.50;13.85;;;7.40;99.90;;;;;;5088622;28;20035;-75
2022/11/13 04:57:22;;;;;;;23.80;14.02;;;7.40;99.90;;;;;;5102593;28;20030;-74
2022/11/13 04:59:47;;;;;;;24.40;13.85;;;7.40;99.90;;;;;;5091547;28;20039;-76
2022/11/13 05:02:14;;;;;;;21.98;13.63;;;7.40;99.90;;;;;;5104920;28;20027;-72
2022/11/13 05:04:41;;;;;;;23.10;14.30;;;7.40;99.90;;;;;;5090405;28;20174;-76
2022/11/13 05:07:08;;;;;;;24.65;15.23;;;7.40;99.90;;;;;;5087023;28;20020;-72
2022/11/13 05:09:34;;;;;;;24.52;14.52;;;7.40;99.90;;;;;;5103638;28;20566;-75
2022/11/13 05:11:59;;;;;;;22.55;13.85;;;7.30;99.90;;;;;;5102480;27;20105;-73
2022/11/13 05:14:25;;;;;;;22.98;13.88;;;7.30;99.90;;;;;;5107232;28;20031;-72
2022/11/13 05:16:52;;;;;;;24.35;13.80;;;7.30;99.90;;;;;;5100877;28;20125;-76
2022/11/13 05:19:19;;;;;;;26.60;15.75;;;7.30;99.90;;;;;;5104900;28;20483;-74
2022/11/13 05:21:44;;;;;;;24.92;14.65;;;7.30;99.90;;;;;;5100745;28;20047;-72
2022/11/13 05:24:12;;;;;;;23.20;14.73;;;7.30;99.90;;;;;;5082542;28;20020;-78
2022/11/13 05:26:38;;;;;;;24.38;14.65;;;7.30;99.90;;;;;;5105399;28;20035;-73
2022/11/13 05:29:04;;;;;;;26.95;14.60;;;7.30;99.90;;;;;;5090506;28;20042;-73
2022/11/13 05:31:30;;;;;;;22.90;15.18;;;7.30;99.90;;;;;;5088280;28;20628;-73
2022/11/13 05:33:56;;;;;;;23.75;14.68;;;7.30;99.90;;;;;;5091274;28;20055;-73
2022/11/13 05:36:22;;;;;;;22.77;14.25;;;7.20;99.90;;;;;;5107049;28;20031;-73
2022/11/13 05:38:48;;;;;;;24.50;14.52;;;7.30;99.90;;;;;;5091728;28;20024;-71
2022/11/13 05:41:18;;;;;;;20.92;14.18;;;7.30;99.90;;;;;;5103466;28;20035;-76
2022/11/13 05:43:46;;;;;;;23.48;14.80;;;7.20;99.90;;;;;;5108736;28;20099;-71
2022/11/13 05:46:21;;;;;;;28.27;14.13;;;7.20;99.90;;;;;;5101833;28;20023;-71
2022/11/13 05:48:51;;;;;;;23.50;14.95;;;7.20;99.90;;;;;;5105800;28;20024;-73
2022/11/13 05:51:19;;;;;;;25.33;14.97;;;7.20;99.90;;;;;;5089335;28;20509;-75
2022/11/13 05:53:45;;;;;;;23.23;14.75;;;7.20;99.90;;;;;;5107741;28;20028;-76
2022/11/13 05:56:17;;;;;;;24.42;15.18;;;7.20;99.90;;;;;;5103720;28;20105;-76
2022/11/13 05:58:43;;;;;;;24.65;14.55;;;7.20;99.90;;;;;;5114467;28;20514;-72
2022/11/13 06:01:12;;;;;;;24.98;13.95;;;7.10;99.90;;;;;;5069511;28;20535;-75
2022/11/13 06:03:39;;;;;;;26.88;15.50;;;7.00;99.90;;;;;;5107820;28;20085;-72
2022/11/13 06:06:07;;;;;;;25.70;14.45;;;7.00;99.90;;;;;;5106209;28;20031;-73
2022/11/13 06:08:34;;;;;;;22.70;14.52;;;7.10;99.90;;;;;;5090678;28;20027;-73
2022/11/13 06:11:01;;;;;;;27.05;15.13;;;7.00;99.90;;;;;;5104723;28;20027;-73
2022/11/13 06:13:29;;;;;;;28.50;16.00;;;7.00;99.90;;;;;;5111740;28;20139;-76
2022/11/13 06:16:07;;;;;;;23.65;14.75;;;7.00;99.90;;;;;;5111106;28;20509;-72
2022/11/13 06:18:33;;;;;;;25.42;15.05;;;7.00;99.90;;;;;;5104329;28;20080;-71
2022/11/13 06:21:05;;;;;;;23.60;14.63;;;6.90;99.90;;;;;;5088273;28;20028;-73
2022/11/13 06:23:36;;;;;;;24.70;15.10;;;6.90;99.90;;;;;;5097311;28;20032;-71
2022/11/13 06:26:08;;;;;;;30.08;16.98;;;6.90;99.90;;;;;;5082813;28;20043;-74
2022/11/13 06:28:36;;;;;;;24.42;15.93;;;6.90;99.90;;;;;;5071300;28;20032;-72
2022/11/13 06:31:06;;;;;;;28.05;16.40;;;6.90;99.90;;;;;;5084032;28;20039;-74
2022/11/13 06:33:33;;;;;;;28.38;16.83;;;6.90;99.90;;;;;;5106369;28;20030;-74
2022/11/13 06:36:04;;;;;;;26.17;14.05;;;6.90;99.90;;;;;;5106180;28;20080;-72
2022/11/13 06:38:36;;;;;;;23.27;14.32;;;6.90;99.90;;;;;;5104592;28;20023;-76
2022/11/13 06:41:03;;;;;;;23.92;14.63;;;6.90;99.90;;;;;;5086945;28;20028;-73
2022/11/13 06:43:29;;;;;;;24.75;14.90;;;6.90;99.90;;;;;;5105269;28;20035;-73
2022/11/13 06:45:56;;;;;;;24.20;13.93;;;6.90;99.90;;;;;;5102782;28;20032;-73
2022/11/13 06:48:22;;;;;;;26.17;15.50;;;6.90;99.90;;;;;;5104429;28;20059;-74
2022/11/13 06:50:48;;;;;;;22.23;14.75;;;6.90;99.90;;;;;;5101276;28;20030;-76
2022/11/13 06:53:15;;;;;;;24.67;15.07;;;6.90;99.90;;;;;;5104213;28;20039;-76
2022/11/13 06:55:45;;;;;;;24.98;15.35;;;6.90;99.90;;;;;;5086114;28;20027;-72
2022/11/13 06:58:11;;;;;;;24.67;14.70;;;6.80;99.90;;;;;;5087915;28;20032;-72
2022/11/13 07:00:38;;;;;;;23.42;15.25;;;6.80;99.90;;;;;;5088824;28;20020;-71
2022/11/13 07:03:04;;;;;;;22.88;14.13;;;6.80;99.90;;;;;;5106572;28;20027;-72
2022/11/13 07:05:29;;;;;;;26.50;15.60;;;6.90;99.90;;;;;;5110578;28;20036;-76
2022/11/13 07:07:58;;;;;;;27.48;16.15;;;6.90;99.90;;;;;;5103291;28;20024;-75
2022/11/13 07:10:25;;;;;;;26.08;15.68;;;6.90;99.90;;;;;;5108861;28;20051;-72
2022/11/13 07:12:51;;;;;;;27.33;15.07;;;6.90;99.90;;;;;;5089382;28;20509;-74
2022/11/13 07:15:17;;;;;;;26.90;16.27;;;6.90;99.90;;;;;;5103515;28;20012;-76
2022/11/13 07:17:43;;;;;;;27.40;14.63;;;6.90;99.90;;;;;;5104781;28;20108;-74
2022/11/13 07:20:10;;;;;;;25.80;16.30;;;7.00;99.90;;;;;;5109628;28;20141;-72
2022/11/13 07:22:36;;;;;;;25.98;15.38;;;6.90;99.90;;;;;;5103271;28;20130;-73
2022/11/13 07:25:03;;;;;;;28.30;15.00;;;7.00;99.90;;;;;;5084295;28;20051;-75
2022/11/13 07:27:29;;;;;;;22.50;14.48;;;7.00;99.90;;;;;;5088020;28;20042;-73
2022/11/13 07:29:57;;;;;;;24.88;15.73;;;7.00;99.90;;;;;;5107050;28;20036;-75
2022/11/13 07:32:23;;;;;;;26.38;15.18;;;7.00;99.90;;;;;;5106227;28;20024;-74
2022/11/13 07:34:48;;;;;;;25.75;15.45;;;7.00;99.90;;;;;;5106108;28;20031;-78
2022/11/13 07:37:14;;;;;;;25.50;15.75;;;7.00;99.90;;;;;;5087848;28;20028;-72
2022/11/13 07:39:41;;;;;;;24.52;14.55;;;7.00;99.90;;;;;;5102207;28;20026;-74
2022/11/13 07:42:08;;;;;;;27.52;15.85;;;7.10;99.90;;;;;;5104737;27;20106;-73
2022/11/13 07:44:34;;;;;;;29.75;16.58;;;7.00;99.90;;;;;;5089950;28;20092;-78
2022/11/13 07:47:00;;;;;;;26.25;15.70;;;7.00;99.90;;;;;;5093345;27;20035;-77
2022/11/13 07:49:27;;;;;;;27.65;15.23;;;7.00;99.90;;;;;;5103851;28;20819;-76
2022/11/13 07:51:53;;;;;;;24.92;14.93;;;7.00;99.90;;;;;;5105053;28;20031;-73
2022/11/13 07:54:19;;;;;;;22.45;14.63;;;7.10;99.90;;;;;;5087282;28;20024;-73
2022/11/13 07:56:46;;;;;;;24.83;15.35;;;7.10;99.90;;;;;;5105581;28;20391;-73
2022/11/13 07:59:12;;;;;;;28.60;16.30;;;7.10;99.90;;;;;;5102801;28;20024;-75
2022/11/13 08:01:38;;;;;;;23.13;14.63;;;7.10;99.90;;;;;;5086847;28;20023;-76
2022/11/13 08:04:04;;;;;;;26.20;15.07;;;7.10;99.90;;;;;;5109386;28;20353;-75
2022/11/13 08:06:29;;;;;;;22.92;14.93;;;7.20;99.90;;;;;;5088154;28;20030;-72
2022/11/13 08:08:55;;;;;;;23.40;14.82;;;7.20;99.90;;;;;;5089784;28;20035;-72
2022/11/13 08:11:21;;;;;;;23.98;15.63;;;7.10;99.90;;;;;;5089000;28;20031;-72
2022/11/13 08:13:48;;;;;;;25.50;16.08;;;7.20;99.90;;;;;;5086225;28;20546;-74
2022/11/13 08:16:13;;;;;;;30.33;16.77;;;7.20;99.90;;;;;;5108448;28;20495;-74
2022/11/13 08:18:39;;;;;;;26.25;15.60;;;7.30;99.90;;;;;;5109523;28;20043;-72
2022/11/13 08:21:05;;;;;;;31.42;16.27;;;7.30;99.90;;;;;;5112688;28;20466;-72
2022/11/13 08:23:31;;;;;;;24.55;14.32;;;7.30;99.90;;;;;;5104933;28;20039;-72
2022/11/13 08:25:57;;;;;;;27.92;16.27;;;7.30;99.90;;;;;;5105790;28;20055;-72
2022/11/13 08:28:24;;;;;;;30.23;15.88;;;7.30;99.90;;;;;;5106272;28;20051;-71
2022/11/13 08:30:50;;;;;;;28.77;16.95;;;7.30;99.90;;;;;;5089558;28;20932;-72
2022/11/13 08:33:16;;;;;;;31.88;17.45;;;7.30;99.90;;;;;;5082694;28;20034;-72
2022/11/13 08:35:41;;;;;;;32.70;17.75;;;7.30;99.90;;;;;;5098873;28;20391;-73
2022/11/13 08:38:08;;;;;;;32.25;16.00;;;7.20;99.90;;;;;;5072696;28;20550;-72
2022/11/13 08:40:34;;;;;;;32.80;17.20;;;7.30;99.90;;;;;;5102530;28;20111;-71
2022/11/13 08:43:03;;;;;;;32.13;17.77;;;7.30;99.90;;;;;;5084764;28;20031;-72
2022/11/13 08:45:30;;;;;;;37.47;17.73;;;7.20;99.90;;;;;;5098710;28;20064;-72
2022/11/13 08:48:00;;;;;;;32.67;16.83;;;7.30;99.90;;;;;;5080986;28;20103;-72
2022/11/13 08:50:27;;;;;;;33.07;17.70;;;7.30;99.90;;;;;;5100488;28;20111;-73
2022/11/13 08:52:57;;;;;;;40.45;19.70;;;7.20;99.90;;;;;;5100216;28;21064;-73
2022/11/13 08:55:24;;;;;;;33.10;18.17;;;7.30;99.90;;;;;;5082096;28;20116;-73
2022/11/13 08:57:50;;;;;;;34.50;17.85;;;7.30;99.90;;;;;;5099219;27;20068;-72
2022/11/13 09:00:16;;;;;;;34.88;18.40;;;7.30;99.90;;;;;;5101793;28;20040;-72
2022/11/13 09:02:43;;;;;;;39.47;20.13;;;7.30;99.90;;;;;;5087793;28;20026;-72
2022/11/13 09:05:09;;;;;;;36.35;18.75;;;7.30;99.90;;;;;;5103919;28;20024;-72
2022/11/13 09:07:35;;;;;;;34.88;17.15;;;7.30;99.90;;;;;;5088414;28;20039;-72
2022/11/13 09:10:00;;;;;;;34.30;18.60;;;7.40;99.90;;;;;;5105695;28;20028;-72
2022/11/13 09:12:26;;;;;;;38.90;18.70;;;7.40;99.90;;;;;;5090983;28;20438;-73
2022/11/13 09:14:52;;;;;;;36.28;18.55;;;7.40;99.90;;;;;;5099281;28;20031;-72
2022/11/13 09:17:18;;;;;;;37.25;17.92;;;7.50;99.90;;;;;;5107530;28;20035;-72
2022/11/13 09:19:44;;;;;;;36.75;17.48;;;7.50;99.90;;;;;;5066368;28;20042;-73
2022/11/13 09:22:10;;;;;;;38.03;18.20;;;7.50;99.90;;;;;;5086562;28;20031;-72
2022/11/13 09:24:37;;;;;;;36.47;18.00;;;7.50;99.90;;;;;;5079275;28;20064;-73
2022/11/13 09:27:03;;;;;;;36.08;17.98;;;7.50;99.90;;;;;;5098620;28;20489;-71
2022/11/13 09:29:28;;;;;;;36.20;18.23;;;7.50;99.90;;;;;;5085980;28;20047;-72
2022/11/13 09:31:55;;;;;;;44.67;18.20;;;7.50;99.90;;;;;;5084495;27;20479;-72
2022/11/13 09:34:22;;;;;;;36.63;18.42;;;7.50;99.90;;;;;;5087277;28;20038;-72
2022/11/13 09:36:50;;;;;;;39.83;17.42;;;7.50;99.90;;;;;;5096971;27;20024;-72
2022/11/13 09:39:16;;;;;;;38.63;19.02;;;7.60;99.90;;;;;;5082228;28;20020;-72
2022/11/13 09:42:05;;;;;;;38.30;18.17;;;7.60;99.90;;;;;;5100208;28;20015;-72
2022/11/13 09:44:33;;;;;;;36.60;17.92;;;7.60;99.90;;;;;;5072702;28;20077;-72
2022/11/13 09:47:26;;;;;;;38.30;17.30;;;7.60;99.90;;;;;;5097735;28;20106;-72
2022/11/13 09:50:08;;;;;;;33.45;17.08;;;7.70;99.90;;;;;;5086582;28;20024;-72
2022/11/13 09:52:41;;;;;;;39.63;18.52;;;7.80;99.90;;;;;;5067831;28;20050;-72
2022/11/13 09:55:12;;;;;;;38.85;19.10;;;7.80;99.90;;;;;;5105198;28;20107;-72
2022/11/13 09:58:08;;;;;;;36.45;18.65;;;7.90;99.90;;;;;;5105290;28;20062;-72
2022/11/13 10:00:35;;;;;;;38.38;18.73;;;7.90;99.90;;;;;;5104088;28;20496;-72
2022/11/13 10:03:29;;;;;;;36.70;19.33;;;7.90;99.90;;;;;;5100931;28;20034;-72
2022/11/13 10:06:22;;;;;;;39.35;19.42;;;8.00;99.90;;;;;;5097076;28;20737;-71
2022/11/13 10:09:19;;;;;;;41.90;19.98;;;8.00;99.90;;;;;;5077726;28;20456;-71
2022/11/13 10:11:57;;;;;;;35.40;18.77;;;8.00;99.90;;;;;;5099780;28;20044;-71
2022/11/13 10:14:47;;;;;;;32.83;18.35;;;8.10;99.90;;;;;;5104390;28;20027;-71
2022/11/13 10:17:27;;;;;;;44.72;21.25;;;8.10;99.90;;;;;;5101502;28;20028;-72
2022/11/13 10:19:59;;;;;;;38.78;20.95;;;8.10;99.90;;;;;;5082320;28;20026;-71
2022/11/13 10:22:40;;;;;;;40.20;21.10;;;8.10;99.90;;;;;;5087160;28;20099;-73
2022/11/13 10:25:14;;;;;;;38.05;20.92;;;8.10;99.90;;;;;;5109117;28;20063;-71
2022/11/13 10:27:40;;;;;;;38.17;21.17;;;8.00;99.90;;;;;;5084582;28;20607;-71
2022/11/13 10:30:16;;;;;;;36.80;20.65;;;8.00;99.90;;;;;;5103315;28;21352;-71
2022/11/13 10:32:43;;;;;;;36.17;20.50;;;7.90;99.90;;;;;;5096983;28;20023;-72
2022/11/13 10:35:27;;;;;;;34.80;19.73;;;7.90;99.90;;;;;;5102878;28;20028;-72
2022/11/13 10:38:03;;;;;;;35.55;20.45;;;8.00;99.90;;;;;;5081432;28;20059;-72
2022/11/13 10:40:33;;;;;;;44.08;23.02;;;8.10;99.90;;;;;;5105026;28;20570;-72
2022/11/13 10:43:23;;;;;;;32.95;19.17;;;8.10;99.90;;;;;;5083335;28;20107;-71
2022/11/13 10:46:00;;;;;;;37.70;19.98;;;8.10;99.90;;;;;;5102773;28;20020;-72
2022/11/13 10:48:32;;;;;;;35.97;20.77;;;8.20;99.90;;;;;;5086287;28;20726;-72
2022/11/13 10:51:00;;;;;;;34.35;19.88;;;8.10;99.90;;;;;;5083247;28;20175;-73
2022/11/13 10:53:36;;;;;;;36.50;19.98;;;8.20;99.90;;;;;;5076548;28;20522;-72
2022/11/13 10:56:12;;;;;;;37.72;19.00;;;8.20;99.90;;;;;;5076459;28;20202;-73
2022/11/13 10:58:37;;;;;;;38.33;19.83;;;8.30;99.90;;;;;;5087856;28;20039;-72
2022/11/13 11:01:22;;;;;;;36.60;20.92;;;8.30;99.90;;;;;;5103447;28;20377;-72
2022/11/13 11:03:49;;;;;;;37.80;21.13;;;8.20;99.90;;;;;;5092657;28;20039;-72
2022/11/13 11:06:15;;;;;;;34.88;20.05;;;8.20;99.90;;;;;;5075457;28;20040;-73
2022/11/13 11:08:41;;;;;;;35.63;20.02;;;8.20;99.90;;;;;;5075520;28;20054;-75
2022/11/13 11:14:14;;;;;;;36.15;19.98;;;8.20;99.90;;;;;;5100317;28;20027;-73
2022/11/13 11:16:41;;;;;;;35.00;20.42;;;8.30;99.90;;;;;;5103772;28;20016;-73
2022/11/13 11:19:11;;;;;;;34.42;20.23;;;8.20;99.90;;;;;;5101683;28;20016;-73
2022/11/13 11:21:40;;;;;;;37.67;21.65;;;8.20;99.90;;;;;;5084578;28;20126;-72
2022/11/13 11:24:21;;;;;;;32.80;20.33;;;8.20;99.90;;;;;;5080718;28;20046;-74
2022/11/13 11:26:50;;;;;;;;;;;8.20;99.90;;;;;;5098438;28;20035;-75
2022/11/13 11:29:31;;;;;;;34.10;18.67;;;8.20;99.90;;;;;;5066838;28;19943;-73
2022/11/13 11:32:38;;;;;;;33.65;18.27;;;8.10;99.90;;;;;;5084515;28;20067;-73
2022/11/13 11:35:12;;;;;;;38.00;19.77;;;8.10;99.90;;;;;;5099441;28;20518;-73
2022/11/13 11:38:16;;;;;;;36.72;20.63;;;8.20;99.90;;;;;;5091741;28;20074;-73
2022/11/13 11:40:50;;;;;;;33.97;19.38;;;8.10;99.90;;;;;;5091934;28;20036;-73
2022/11/13 11:43:43;;;;;;;34.00;19.95;;;8.20;99.90;;;;;;5083135;28;20111;-74
2022/11/13 11:46:16;;;;;;;35.13;19.55;;;8.20;99.90;;;;;;5084313;28;20058;-74
2022/11/13 11:48:42;;;;;;;34.08;18.77;;;8.20;99.90;;;;;;5105293;28;20055;-73
2022/11/13 11:51:30;;;;;;;35.65;18.83;;;8.30;99.90;;;;;;5105232;28;20062;-74
2022/11/13 11:54:23;;;;;;;36.75;19.83;;;8.20;99.90;;;;;;5098756;28;20036;-75
2022/11/13 11:56:58;;;;;;;33.22;19.35;;;8.30;99.90;;;;;;5095642;28;20028;-73
2022/11/13 11:59:55;;;;;;;32.28;18.45;;;8.30;99.90;;;;;;5099545;28;20035;-73
2022/11/13 12:02:43;;;;;;;31.55;18.38;;;8.40;99.90;;;;;;5103796;28;20023;-72
2022/11/13 12:05:28;;;;;;;28.85;18.13;;;8.40;99.90;;;;;;5089975;28;20038;-73
2022/11/13 12:07:57;;;;;;;30.85;17.73;;;8.50;99.90;;;;;;5107834;28;20027;-72
2022/11/13 12:11:02;;;;;;;31.13;17.48;;;8.50;99.90;;;;;;5105501;28;20411;-72
2022/11/13 12:13:32;;;;;;;30.25;16.55;;;8.50;99.90;;;;;;5085371;28;20551;-71
2022/11/13 12:15:58;;;;;;;28.35;16.58;;;8.60;99.90;;;;;;5104630;28;20024;-72
2022/11/13 12:18:53;;;;;;;27.25;16.85;;;8.60;99.90;;;;;;5078620;28;20034;-73
2022/11/13 12:21:29;;;;;;;25.77;15.25;;;8.60;99.90;;;;;;5084376;28;20027;-73
2022/11/13 12:24:17;;;;;;;24.58;15.05;;;8.60;99.90;;;;;;5091311;28;20032;-73
2022/11/13 12:26:55;;;;;;;32.75;15.50;;;8.60;99.90;;;;;;5091613;28;20019;-73
2022/11/13 12:29:33;;;;;;;23.83;15.00;;;8.60;99.90;;;;;;5107584;28;20033;-74
2022/11/13 12:32:13;;;;;;;28.58;15.20;;;8.50;99.90;;;;;;5105494;28;20035;-73
2022/11/13 12:35:15;;;;;;;26.15;15.60;;;8.50;99.90;;;;;;5065640;28;20020;-74
2022/11/13 12:38:01;;;;;;;25.95;14.82;;;8.50;99.90;;;;;;5084036;28;20090;-72
2022/11/13 12:40:44;;;;;;;26.33;14.25;;;8.40;99.90;;;;;;5085496;28;20493;-74
2022/11/13 12:43:30;;;;;;;25.58;14.88;;;8.40;99.90;;;;;;5067315;28;20805;-73
2022/11/13 12:46:04;;;;;;;25.30;15.77;;;8.40;99.90;;;;;;5094777;28;20144;-73
2022/11/13 12:48:39;;;;;;;23.42;14.43;;;8.50;99.90;;;;;;5096071;28;20031;-71
2022/11/13 12:51:11;;;;;;;24.52;14.00;;;8.50;99.90;;;;;;5102150;28;20024;-71
2022/11/13 12:53:54;;;;;;;25.33;13.85;;;8.80;99.90;;;;;;5101960;28;20024;-70
2022/11/13 12:56:23;;;;;;;25.17;14.80;;;8.80;99.90;;;;;;5097574;28;20028;-71
2022/11/13 12:59:02;;;;;;;23.27;13.73;;;8.70;99.90;;;;;;5061889;28;20035;-70